Time,TemperatureF,DewpointF,PressureIn,WindDirection,WindDirectionDegrees,WindSpeedMPH,WindSpeedGustMPH,Humidity,HourlyPrecipIn,Conditions,Clouds,dailyrainin,SolarRadiationWatts/m^2,SoftwareType,DateUTC
2013-03-02 00:01:00,16.3,12.1,30.32,North,360,1.0,2.0,83,0.00,,CLR,0.00,0.00,VWS V14.01,2013-03-02 06:01:00,
2013-03-02 00:06:00,16.3,12.1,30.32,North,360,0.0,3.0,83,0.00,,CLR,0.00,0.00,VWS V14.01,2013-03-02 06:06:00,
2013-03-02 00:11:00,16.1,11.9,30.32,North,360,1.0,3.0,83,0.00,,CLR,0.00,0.00,VWS V14.01,2013-03-02 06:11:00,
2013-03-02 00:16:00,16.0,11.8,30.32,North,360,1.0,3.0,83,0.00,,CLR,0.00,0.00,VWS V14.01,2013-03-02 06:16:00,
2013-03-02 00:21:00,16.0,11.8,30.32,North,360,0.0,3.0,83,0.00,,CLR,0.00,0.00,VWS V14.01,2013-03-02 06:21:00,
2013-03-02 00:26:00,15.8,11.6,30.32,North,360,0.0,3.0,83,0.00,,CLR,0.00,0.00,VWS V14.01,2013-03-02 06:26:00,
2013-03-02 00:31:00,15.6,11.4,30.32,North,360,0.0,1.0,83,0.00,,CLR,0.00,0.00,VWS V14.01,2013-03-02 06:31:00,
2013-03-02 00:36:00,15.5,11.3,30.32,North,360,0.0,1.0,83,0.00,,CLR,0.00,0.00,VWS V14.01,2013-03-02 06:36:00,
2013-03-02 00:41:00,15.4,11.2,30.33,North,360,0.0,1.0,83,0.00,,CLR,0.00,0.00,VWS V14.01,2013-03-02 06:41:00,
2013-03-02 00:46:00,15.2,11.2,30.33,North,360,0.0,1.0,84,0.00,,CLR,0.00,0.00,VWS V14.01,2013-03-02 06:46:00,
2013-03-02 00:51:00,15.2,11.2,30.33,North,360,0.0,2.0,84,0.00,,CLR,0.00,0.00,VWS V14.01,2013-03-02 06:51:00,
2013-03-02 00:56:00,15.1,11.1,30.33,North,360,0.0,2.0,84,0.00,,CLR,0.00,0.00,VWS V14.01,2013-03-02 06:56:00,
2013-03-02 01:01:00,15.0,11.1,30.33,North,360,0.0,2.0,84,0.00,,CLR,0.00,0.00,VWS V14.01,2013-03-02 07:01:00,
2013-03-02 01:06:00,14.8,10.9,30.33,North,360,0.0,2.0,84,0.00,,CLR,0.00,0.00,VWS V14.01,2013-03-02 07:06:00,
2013-03-02 01:11:00,14.6,10.7,30.33,North,360,0.0,2.0,84,0.00,,CLR,0.00,0.00,VWS V14.01,2013-03-02 07:11:00,
2013-03-02 01:16:00,14.6,10.7,30.33,North,360,1.0,2.0,84,0.00,,CLR,0.00,0.00,VWS V14.01,2013-03-02 07:16:00,
2013-03-02 01:21:00,14.5,10.6,30.33,North,360,0.0,2.0,84,0.00,,CLR,0.00,0.00,VWS V14.01,2013-03-02 07:21:00,
2013-03-02 01:26:00,14.4,10.7,30.33,North,360,0.0,2.0,85,0.00,,CLR,0.00,0.00,VWS V14.01,2013-03-02 07:26:00,
2013-03-02 01:31:00,14.3,10.6,30.33,North,360,0.0,0.0,85,0.00,,CLR,0.00,0.00,VWS V14.01,2013-03-02 07:31:00,
2013-03-02 01:36:00,14.0,10.3,30.33,North,360,0.0,1.0,85,0.00,,CLR,0.00,0.00,VWS V14.01,2013-03-02 07:36:00,
2013-03-02 01:41:00,13.7,10.0,30.33,North,360,0.0,1.0,85,0.00,,CLR,0.00,0.00,VWS V14.01,2013-03-02 07:41:00,
2013-03-02 01:46:00,13.3,9.6,30.33,North,360,1.0,1.0,85,0.00,,CLR,0.00,0.00,VWS V14.01,2013-03-02 07:46:00,
2013-03-02 01:51:00,12.8,9.1,30.33,North,360,0.0,1.0,85,0.00,,CLR,0.00,0.00,VWS V14.01,2013-03-02 07:51:00,
2013-03-02 01:56:00,12.4,8.8,30.33,North,360,0.0,1.0,85,0.00,,CLR,0.00,0.00,VWS V14.01,2013-03-02 07:56:00,
2013-03-02 02:01:00,12.0,8.6,30.33,North,360,0.0,0.0,86,0.00,,CLR,0.00,0.00,VWS V14.01,2013-03-02 08:01:00,
2013-03-02 02:06:00,11.4,7.8,30.33,North,360,1.0,1.0,85,0.00,,CLR,0.00,0.00,VWS V14.01,2013-03-02 08:06:00,
2013-03-02 02:11:00,11.0,7.6,30.33,North,360,0.0,1.0,86,0.00,,CLR,0.00,0.00,VWS V14.01,2013-03-02 08:11:00,
2013-03-02 02:16:00,11.0,7.9,30.33,North,360,0.0,1.0,87,0.00,,CLR,0.00,0.00,VWS V14.01,2013-03-02 08:16:00,
2013-03-02 02:21:00,10.9,7.8,30.33,North,360,0.0,1.0,87,0.00,,CLR,0.00,0.00,VWS V14.01,2013-03-02 08:21:00,
2013-03-02 02:26:00,10.6,7.2,30.33,North,360,0.0,1.0,86,0.00,,CLR,0.00,0.00,VWS V14.01,2013-03-02 08:26:00,
2013-03-02 02:31:00,10.4,7.3,30.33,North,360,0.0,0.0,87,0.00,,CLR,0.00,0.00,VWS V14.01,2013-03-02 08:31:00,
2013-03-02 02:36:00,10.1,7.0,30.33,North,360,0.0,0.0,87,0.00,,CLR,0.00,0.00,VWS V14.01,2013-03-02 08:36:00,
2013-03-02 02:41:00,9.8,6.5,30.33,North,360,0.0,0.0,86,0.00,,CLR,0.00,0.00,VWS V14.01,2013-03-02 08:41:00,
2013-03-02 02:46:00,9.4,6.1,30.33,North,360,0.0,0.0,86,0.00,,CLR,0.00,0.00,VWS V14.01,2013-03-02 08:46:00,
2013-03-02 02:51:00,9.1,5.8,30.33,North,360,0.0,0.0,86,0.00,,CLR,0.00,0.00,VWS V14.01,2013-03-02 08:51:00,
2013-03-02 02:56:00,9.0,5.9,30.33,North,360,0.0,0.0,87,0.00,,CLR,0.00,0.00,VWS V14.01,2013-03-02 08:56:00,
2013-03-02 03:01:00,8.8,5.7,30.33,North,360,0.0,0.0,87,0.00,,CLR,0.00,0.00,VWS V14.01,2013-03-02 09:01:00,
2013-03-02 03:06:00,8.6,5.5,30.33,North,360,0.0,1.0,87,0.00,,CLR,0.00,0.00,VWS V14.01,2013-03-02 09:06:00,
2013-03-02 03:11:00,8.7,5.9,30.33,North,360,0.0,1.0,88,0.00,,CLR,0.00,0.00,VWS V14.01,2013-03-02 09:11:00,
2013-03-02 03:16:00,8.8,6.0,30.33,North,360,0.0,1.0,88,0.00,,CLR,0.00,0.00,VWS V14.01,2013-03-02 09:16:00,
2013-03-02 03:21:00,8.8,6.0,30.33,North,360,0.0,1.0,88,0.00,,CLR,0.00,0.00,VWS V14.01,2013-03-02 09:21:00,
2013-03-02 03:26:00,8.8,6.0,30.33,North,360,0.0,1.0,88,0.00,,CLR,0.00,0.00,VWS V14.01,2013-03-02 09:26:00,
2013-03-02 03:32:00,8.9,6.1,30.33,North,360,0.0,0.0,88,0.00,,CLR,0.00,0.00,VWS V14.01,2013-03-02 09:32:00,
2013-03-02 03:37:00,8.7,5.9,30.33,North,360,0.0,1.0,88,0.00,,CLR,0.00,0.00,VWS V14.01,2013-03-02 09:37:00,
2013-03-02 03:42:00,8.7,5.9,30.34,North,360,0.0,1.0,88,0.00,,CLR,0.00,0.00,VWS V14.01,2013-03-02 09:42:00,
2013-03-02 03:47:00,8.7,5.9,30.33,North,360,0.0,1.0,88,0.00,,CLR,0.00,0.00,VWS V14.01,2013-03-02 09:47:00,
2013-03-02 03:52:00,8.6,5.5,30.33,North,360,0.0,1.0,87,0.00,,CLR,0.00,0.00,VWS V14.01,2013-03-02 09:52:00,
2013-03-02 03:57:00,8.6,5.5,30.33,North,360,0.0,1.0,87,0.00,,CLR,0.00,0.00,VWS V14.01,2013-03-02 09:57:00,
2013-03-02 04:02:00,8.5,5.4,30.33,North,360,1.0,1.0,87,0.00,,CLR,0.00,0.00,VWS V14.01,2013-03-02 10:02:00,
2013-03-02 04:07:00,8.2,5.1,30.34,North,360,0.0,1.0,87,0.00,,CLR,0.00,0.00,VWS V14.01,2013-03-02 10:07:00,
2013-03-02 04:12:00,7.7,4.4,30.34,North,360,0.0,1.0,86,0.00,,CLR,0.00,0.00,VWS V14.01,2013-03-02 10:12:00,
2013-03-02 04:17:00,7.6,4.6,30.34,North,360,0.0,1.0,87,0.00,,CLR,0.00,0.00,VWS V14.01,2013-03-02 10:17:00,
2013-03-02 04:22:00,7.6,4.6,30.34,North,360,1.0,1.0,87,0.00,,CLR,0.00,0.00,VWS V14.01,2013-03-02 10:22:00,
2013-03-02 04:27:00,7.4,4.3,30.34,North,360,1.0,1.0,87,0.00,,CLR,0.00,0.00,VWS V14.01,2013-03-02 10:27:00,
2013-03-02 04:32:00,7.3,4.2,30.34,North,360,0.0,1.0,87,0.00,,CLR,0.00,0.00,VWS V14.01,2013-03-02 10:32:00,
2013-03-02 04:37:00,7.2,4.2,30.34,North,360,0.0,1.0,87,0.00,,CLR,0.00,0.00,VWS V14.01,2013-03-02 10:37:00,
2013-03-02 04:42:00,7.2,4.2,30.34,North,360,0.0,1.0,87,0.00,,CLR,0.00,0.00,VWS V14.01,2013-03-02 10:42:00,
2013-03-02 04:47:00,7.6,4.8,30.33,North,360,0.0,1.0,88,0.00,,CLR,0.00,0.00,VWS V14.01,2013-03-02 10:47:00,
2013-03-02 04:52:00,7.9,5.1,30.33,North,360,0.0,1.0,88,0.00,,CLR,0.00,0.00,VWS V14.01,2013-03-02 10:52:00,
2013-03-02 04:57:00,7.6,4.6,30.34,North,360,0.0,1.0,87,0.00,,CLR,0.00,0.00,VWS V14.01,2013-03-02 10:57:00,
2013-03-02 05:02:00,7.4,4.3,30.34,North,360,0.0,0.0,87,0.00,,CLR,0.00,0.00,VWS V14.01,2013-03-02 11:02:00,
2013-03-02 05:07:00,7.2,4.2,30.34,North,360,0.0,0.0,87,0.00,,CLR,0.00,0.00,VWS V14.01,2013-03-02 11:07:00,
2013-03-02 05:12:00,6.8,3.5,30.34,North,360,0.0,0.0,86,0.00,,CLR,0.00,0.00,VWS V14.01,2013-03-02 11:12:00,
2013-03-02 05:17:00,6.4,3.1,30.34,North,360,0.0,0.0,86,0.00,,CLR,0.00,0.00,VWS V14.01,2013-03-02 11:17:00,
2013-03-02 05:22:00,6.0,2.7,30.34,North,360,2.0,2.0,86,0.00,,CLR,0.00,0.00,VWS V14.01,2013-03-02 11:22:00,
2013-03-02 05:27:00,5.9,2.6,30.34,North,360,1.0,2.0,86,0.00,,CLR,0.00,0.00,VWS V14.01,2013-03-02 11:27:00,
2013-03-02 05:32:00,6.0,3.0,30.34,North,360,0.0,2.0,87,0.00,,CLR,0.00,0.00,VWS V14.01,2013-03-02 11:32:00,
2013-03-02 05:37:00,6.4,3.6,30.34,North,360,2.0,2.0,88,0.00,,CLR,0.00,0.00,VWS V14.01,2013-03-02 11:37:00,
2013-03-02 05:42:00,6.7,3.9,30.34,North,360,1.0,2.0,88,0.00,,CLR,0.00,0.00,VWS V14.01,2013-03-02 11:42:00,
2013-03-02 05:47:00,6.8,4.0,30.34,North,360,0.0,2.0,88,0.00,,CLR,0.00,0.00,VWS V14.01,2013-03-02 11:47:00,
2013-03-02 05:52:00,6.9,3.9,30.34,North,360,0.0,2.0,87,0.00,,CLR,0.00,0.00,VWS V14.01,2013-03-02 11:52:00,
2013-03-02 05:57:00,6.7,3.7,30.34,North,360,0.0,2.0,87,0.00,,CLR,0.00,0.00,VWS V14.01,2013-03-02 11:57:00,
2013-03-02 06:02:00,6.3,3.0,30.34,North,360,0.0,0.0,86,0.00,,CLR,0.00,0.00,VWS V14.01,2013-03-02 12:02:00,
2013-03-02 06:07:00,6.0,2.7,30.34,North,360,0.0,0.0,86,0.00,,CLR,0.00,0.00,VWS V14.01,2013-03-02 12:07:00,
2013-03-02 06:12:00,5.8,2.5,30.34,North,360,0.0,0.0,86,0.00,,CLR,0.00,0.00,VWS V14.01,2013-03-02 12:12:00,
2013-03-02 06:18:00,5.6,2.3,30.34,North,360,0.0,0.0,86,0.00,,CLR,0.00,0.00,VWS V14.01,2013-03-02 12:18:00,
2013-03-02 06:23:00,5.6,2.3,30.35,North,360,0.0,0.0,86,0.00,,CLR,0.00,0.00,VWS V14.01,2013-03-02 12:23:00,
2013-03-02 06:28:00,5.7,2.7,30.35,North,360,0.0,1.0,87,0.00,,CLR,0.00,0.00,VWS V14.01,2013-03-02 12:28:00,
2013-03-02 06:33:00,5.8,2.8,30.35,North,360,0.0,1.0,87,0.00,,CLR,0.00,0.00,VWS V14.01,2013-03-02 12:33:00,
2013-03-02 06:38:00,5.8,2.8,30.34,North,360,0.0,1.0,87,0.00,,CLR,0.00,0.00,VWS V14.01,2013-03-02 12:38:00,
2013-03-02 06:43:00,6.0,3.0,30.34,North,360,0.0,1.0,87,0.00,,CLR,0.00,0.00,VWS V14.01,2013-03-02 12:43:00,
2013-03-02 06:48:00,6.4,3.6,30.34,North,360,0.0,1.0,88,0.00,,CLR,0.00,5.00,VWS V14.01,2013-03-02 12:48:00,
2013-03-02 06:53:00,6.4,3.4,30.34,North,360,0.0,1.0,87,0.00,,CLR,0.00,7.00,VWS V14.01,2013-03-02 12:53:00,
2013-03-02 06:58:00,6.3,3.3,30.34,North,360,0.0,1.0,87,0.00,,CLR,0.00,9.00,VWS V14.01,2013-03-02 12:58:00,
2013-03-02 07:03:00,6.3,3.3,30.34,North,360,0.0,0.0,87,0.00,,CLR,0.00,12.00,VWS V14.01,2013-03-02 13:03:00,
2013-03-02 07:08:00,6.4,3.4,30.34,North,360,0.0,1.0,87,0.00,,CLR,0.00,12.00,VWS V14.01,2013-03-02 13:08:00,
2013-03-02 07:13:00,6.8,4.0,30.35,North,360,0.0,1.0,88,0.00,,CLR,0.00,16.00,VWS V14.01,2013-03-02 13:13:00,
2013-03-02 07:18:00,6.8,3.8,30.35,North,360,0.0,1.0,87,0.00,,CLR,0.00,19.00,VWS V14.01,2013-03-02 13:18:00,
2013-03-02 07:23:00,7.0,4.0,30.35,North,360,0.0,1.0,87,0.00,,CLR,0.00,28.00,VWS V14.01,2013-03-02 13:23:00,
2013-03-02 07:28:00,7.3,4.5,30.35,North,360,0.0,1.0,88,0.00,,CLR,0.00,25.00,VWS V14.01,2013-03-02 13:28:00,
2013-03-02 07:33:00,7.5,4.4,30.35,North,360,0.0,0.0,87,0.00,,CLR,0.00,32.00,VWS V14.01,2013-03-02 13:33:00,
2013-03-02 07:38:00,7.5,4.4,30.35,North,360,0.0,1.0,87,0.00,,CLR,0.00,37.00,VWS V14.01,2013-03-02 13:38:00,
2013-03-02 07:43:00,7.5,4.4,30.35,North,360,1.0,2.0,87,0.00,,CLR,0.00,53.00,VWS V14.01,2013-03-02 13:43:00,
2013-03-02 07:48:00,7.8,4.7,30.35,North,360,0.0,2.0,87,0.00,,CLR,0.00,26.00,VWS V14.01,2013-03-02 13:48:00,
2013-03-02 07:53:00,8.0,4.9,30.35,North,360,0.0,2.0,87,0.00,,CLR,0.00,42.00,VWS V14.01,2013-03-02 13:53:00,
2013-03-02 07:58:00,8.5,5.7,30.35,North,360,0.0,2.0,88,0.00,,CLR,0.00,58.00,VWS V14.01,2013-03-02 13:58:00,
2013-03-02 08:03:00,9.0,6.2,30.35,North,360,1.0,1.0,88,0.00,,CLR,0.00,69.00,VWS V14.01,2013-03-02 14:03:00,
2013-03-02 08:08:00,9.5,6.7,30.35,North,360,0.0,1.0,88,0.00,,CLR,0.00,35.00,VWS V14.01,2013-03-02 14:08:00,
2013-03-02 08:13:00,9.8,7.0,30.35,North,360,0.0,1.0,88,0.00,,CLR,0.00,67.00,VWS V14.01,2013-03-02 14:13:00,
2013-03-02 08:18:00,10.4,7.6,30.35,North,360,0.0,1.0,88,0.00,,CLR,0.00,137.00,VWS V14.01,2013-03-02 14:18:00,
2013-03-02 08:23:00,10.9,8.1,30.35,North,360,0.0,1.0,88,0.00,,CLR,0.00,127.00,VWS V14.01,2013-03-02 14:23:00,
2013-03-02 08:28:00,11.6,8.7,30.35,North,360,0.0,2.0,88,0.00,,CLR,0.00,151.00,VWS V14.01,2013-03-02 14:28:00,
2013-03-02 08:33:00,12.2,9.3,30.35,North,360,0.0,1.0,88,0.00,,CLR,0.00,181.00,VWS V14.01,2013-03-02 14:33:00,
2013-03-02 08:38:00,13.0,10.4,30.35,NNW,337,1.0,5.0,89,0.00,,CLR,0.00,84.00,VWS V14.01,2013-03-02 14:38:00,
2013-03-02 08:43:00,13.6,10.7,30.35,NNE,15,2.0,5.0,88,0.00,,CLR,0.00,155.00,VWS V14.01,2013-03-02 14:43:00,
2013-03-02 08:48:00,14.1,11.2,30.35,NNW,333,3.0,5.0,88,0.00,,CLR,0.00,148.00,VWS V14.01,2013-03-02 14:48:00,
2013-03-02 08:53:00,14.6,11.4,30.34,NNW,336,0.0,5.0,87,0.00,,CLR,0.00,135.00,VWS V14.01,2013-03-02 14:53:00,
2013-03-02 08:58:00,15.1,11.9,30.34,NNW,335,0.0,5.0,87,0.00,,CLR,0.00,165.00,VWS V14.01,2013-03-02 14:58:00,
2013-03-02 09:03:00,15.7,12.5,30.34,NE,38,1.0,3.0,87,0.00,,CLR,0.00,239.00,VWS V14.01,2013-03-02 15:03:00,
2013-03-02 09:08:00,16.2,12.8,30.34,North,9,0.0,3.0,86,0.00,,CLR,0.00,123.00,VWS V14.01,2013-03-02 15:08:00,
2013-03-02 09:13:00,16.6,12.9,30.34,NNE,15,4.0,4.0,85,0.00,,CLR,0.00,172.00,VWS V14.01,2013-03-02 15:13:00,
2013-03-02 09:18:00,17.0,13.3,30.34,NNE,17,0.0,4.0,85,0.00,,CLR,0.00,258.00,VWS V14.01,2013-03-02 15:18:00,
2013-03-02 09:23:00,17.4,13.4,30.34,NNE,17,0.0,4.0,84,0.00,,CLR,0.00,288.00,VWS V14.01,2013-03-02 15:23:00,
2013-03-02 09:28:00,17.9,13.6,30.34,NNE,15,2.0,4.0,83,0.00,,CLR,0.00,285.00,VWS V14.01,2013-03-02 15:28:00,
2013-03-02 09:33:00,18.5,13.6,30.33,NNE,15,0.0,3.0,81,0.00,,CLR,0.00,313.00,VWS V14.01,2013-03-02 15:33:00,
2013-03-02 09:38:00,18.9,13.8,30.33,NNE,15,0.0,3.0,80,0.00,,CLR,0.00,132.00,VWS V14.01,2013-03-02 15:38:00,
2013-03-02 09:43:00,19.2,13.8,30.33,North,5,2.0,4.0,79,0.00,,CLR,0.00,165.00,VWS V14.01,2013-03-02 15:43:00,
2013-03-02 09:48:00,19.5,13.8,30.33,WNW,302,0.0,4.0,78,0.00,,CLR,0.00,216.00,VWS V14.01,2013-03-02 15:48:00,
2013-03-02 09:53:00,19.7,13.4,30.33,WNW,302,0.0,4.0,76,0.00,,CLR,0.00,93.00,VWS V14.01,2013-03-02 15:53:00,
2013-03-02 09:58:00,20.0,13.4,30.33,NNW,345,2.0,7.0,75,0.00,,CLR,0.00,401.00,VWS V14.01,2013-03-02 15:58:00,
2013-03-02 10:03:00,20.3,13.7,30.32,NNW,334,1.0,6.0,75,0.00,,CLR,0.00,545.00,VWS V14.01,2013-03-02 16:03:00,
2013-03-02 10:08:00,21.0,14.0,30.32,NNW,334,3.0,6.0,74,0.00,,CLR,0.00,418.00,VWS V14.01,2013-03-02 16:08:00,
2013-03-02 10:13:00,21.2,13.9,30.32,North,360,1.0,6.0,73,0.00,,CLR,0.00,186.00,VWS V14.01,2013-03-02 16:13:00,
2013-03-02 10:18:00,21.4,13.8,30.32,NNW,338,4.0,6.0,72,0.00,,CLR,0.00,172.00,VWS V14.01,2013-03-02 16:18:00,
2013-03-02 10:23:00,21.6,14.0,30.32,NNW,342,1.0,6.0,72,0.00,,CLR,0.00,151.00,VWS V14.01,2013-03-02 16:23:00,
2013-03-02 10:28:00,22.1,14.1,30.32,ENE,73,0.0,6.0,71,0.00,,CLR,0.00,425.00,VWS V14.01,2013-03-02 16:28:00,
2013-03-02 10:33:00,22.5,14.2,30.32,NW,311,5.0,5.0,70,0.00,,CLR,0.00,348.00,VWS V14.01,2013-03-02 16:33:00,
2013-03-02 10:38:00,22.1,13.5,30.32,NNW,338,1.0,8.0,69,0.00,,CLR,0.00,262.00,VWS V14.01,2013-03-02 16:38:00,
2013-03-02 10:43:00,22.2,13.9,30.32,North,350,4.0,8.0,70,0.00,,CLR,0.00,111.00,VWS V14.01,2013-03-02 16:43:00,
2013-03-02 10:48:00,22.6,14.0,30.31,NNW,338,2.0,8.0,69,0.00,,CLR,0.00,207.00,VWS V14.01,2013-03-02 16:48:00,
2013-03-02 10:53:00,22.9,14.3,30.31,ENE,57,1.0,8.0,69,0.00,,CLR,0.00,158.00,VWS V14.01,2013-03-02 16:53:00,
2013-03-02 10:58:00,23.3,14.3,30.31,ENE,57,0.0,8.0,68,0.00,,CLR,0.00,327.00,VWS V14.01,2013-03-02 16:58:00,
2013-03-02 11:03:00,23.5,14.2,30.31,North,5,3.0,4.0,67,0.00,,CLR,0.00,142.00,VWS V14.01,2013-03-02 17:03:00,
2013-03-02 11:08:00,23.7,13.0,30.31,NNW,327,4.0,9.0,63,0.00,,CLR,0.00,385.00,VWS V14.01,2013-03-02 17:08:00,
2013-03-02 11:13:00,23.9,12.8,30.31,NNW,331,8.0,9.0,62,0.00,,CLR,0.00,264.00,VWS V14.01,2013-03-02 17:13:00,
2013-03-02 11:18:00,24.2,13.4,30.31,NNW,344,1.0,9.0,63,0.00,,CLR,0.00,338.00,VWS V14.01,2013-03-02 17:18:00,
2013-03-02 11:23:00,24.5,12.6,30.30,NNW,327,2.0,9.0,60,0.00,,CLR,0.00,309.00,VWS V14.01,2013-03-02 17:23:00,
2013-03-02 11:28:00,24.6,12.3,30.30,NNW,339,2.0,9.0,59,0.00,,CLR,0.00,380.00,VWS V14.01,2013-03-02 17:28:00,
2013-03-02 11:33:00,24.9,12.6,30.30,ENE,78,3.0,6.0,59,0.00,,CLR,0.00,575.00,VWS V14.01,2013-03-02 17:33:00,
2013-03-02 11:38:00,25.4,13.5,30.30,ENE,61,0.0,6.0,60,0.00,,CLR,0.00,680.00,VWS V14.01,2013-03-02 17:38:00,
2013-03-02 11:43:00,25.9,13.9,30.30,North,9,1.0,6.0,60,0.00,,CLR,0.00,686.00,VWS V14.01,2013-03-02 17:43:00,
2013-03-02 11:48:00,26.2,13.1,30.29,NW,321,2.0,6.0,57,0.00,,CLR,0.00,689.00,VWS V14.01,2013-03-02 17:48:00,
2013-03-02 11:53:00,26.2,12.7,30.29,North,360,2.0,6.0,56,0.00,,CLR,0.00,693.00,VWS V14.01,2013-03-02 17:53:00,
2013-03-02 11:59:00,26.4,12.0,30.29,NW,320,4.0,6.0,54,0.00,,CLR,0.00,694.00,VWS V14.01,2013-03-02 17:59:00,
2013-03-02 12:04:00,25.7,11.8,30.29,WNW,288,3.0,9.0,55,0.00,,CLR,0.00,696.00,VWS V14.01,2013-03-02 18:04:00,
2013-03-02 12:09:00,26.1,12.6,30.28,NNE,17,1.0,9.0,56,0.00,,CLR,0.00,694.00,VWS V14.01,2013-03-02 18:09:00,
2013-03-02 12:14:00,27.2,12.8,30.28,NNE,14,3.0,9.0,54,0.00,,CLR,0.00,698.00,VWS V14.01,2013-03-02 18:14:00,
2013-03-02 12:19:00,27.8,12.5,30.28,NE,47,0.0,9.0,52,0.00,,CLR,0.00,701.00,VWS V14.01,2013-03-02 18:19:00,
2013-03-02 12:24:00,28.1,12.8,30.27,East,89,1.0,9.0,52,0.00,,CLR,0.00,701.00,VWS V14.01,2013-03-02 18:24:00,
2013-03-02 12:29:00,28.1,11.9,30.27,WSW,243,3.0,9.0,50,0.00,,CLR,0.00,701.00,VWS V14.01,2013-03-02 18:29:00,
2013-03-02 12:34:00,28.5,14.0,30.27,SW,228,0.0,2.0,54,0.00,,CLR,0.00,701.00,VWS V14.01,2013-03-02 18:34:00,
2013-03-02 12:39:00,28.7,12.0,30.27,NNE,25,1.0,5.0,49,0.00,,CLR,0.00,700.00,VWS V14.01,2013-03-02 18:39:00,
2013-03-02 12:44:00,28.8,11.1,30.27,NW,318,0.0,5.0,47,0.00,,CLR,0.00,696.00,VWS V14.01,2013-03-02 18:44:00,
2013-03-02 12:49:00,29.3,12.5,30.27,NW,319,1.0,5.0,49,0.00,,CLR,0.00,693.00,VWS V14.01,2013-03-02 18:49:00,
2013-03-02 12:54:00,29.5,13.2,30.26,NW,308,0.0,7.0,50,0.00,,CLR,0.00,691.00,VWS V14.01,2013-03-02 18:54:00,
2013-03-02 12:59:00,29.1,13.2,30.26,WNW,282,5.0,7.0,51,0.00,,CLR,0.00,689.00,VWS V14.01,2013-03-02 18:59:00,
2013-03-02 13:04:00,27.9,13.0,30.26,WNW,282,9.0,9.0,53,0.00,,CLR,0.00,684.00,VWS V14.01,2013-03-02 19:04:00,
2013-03-02 13:09:00,27.3,13.7,30.25,WNW,282,4.0,9.0,56,0.00,,CLR,0.00,679.00,VWS V14.01,2013-03-02 19:09:00,
2013-03-02 13:14:00,27.3,13.7,30.25,WSW,244,3.0,9.0,56,0.00,,CLR,0.00,673.00,VWS V14.01,2013-03-02 19:14:00,
2013-03-02 13:19:00,27.2,14.0,30.25,SSW,206,7.0,9.0,57,0.00,,CLR,0.00,668.00,VWS V14.01,2013-03-02 19:19:00,
2013-03-02 13:24:00,26.8,14.0,30.25,SW,234,5.0,9.0,58,0.00,,CLR,0.00,663.00,VWS V14.01,2013-03-02 19:24:00,
2013-03-02 13:29:00,26.9,14.5,30.25,West,271,2.0,9.0,59,0.00,,CLR,0.00,659.00,VWS V14.01,2013-03-02 19:29:00,
2013-03-02 13:34:00,27.1,15.1,30.25,SW,232,12.0,12.0,60,0.00,,CLR,0.00,652.00,VWS V14.01,2013-03-02 19:34:00,
2013-03-02 13:39:00,26.8,15.2,30.24,WSW,238,8.0,12.0,61,0.00,,CLR,0.00,647.00,VWS V14.01,2013-03-02 19:39:00,
2013-03-02 13:44:00,27.0,15.0,30.24,WSW,246,5.0,12.0,60,0.00,,CLR,0.00,638.00,VWS V14.01,2013-03-02 19:44:00,
2013-03-02 13:49:00,27.3,15.3,30.24,WSW,250,5.0,12.0,60,0.00,,CLR,0.00,633.00,VWS V14.01,2013-03-02 19:49:00,
2013-03-02 13:54:00,27.6,14.8,30.24,WNW,283,6.0,12.0,58,0.00,,CLR,0.00,628.00,VWS V14.01,2013-03-02 19:54:00,
2013-03-02 13:59:00,27.6,14.4,30.24,West,280,5.0,5.0,57,0.00,,CLR,0.00,619.00,VWS V14.01,2013-03-02 19:59:00,
2013-03-02 14:04:00,27.8,15.0,30.23,West,275,9.0,9.0,58,0.00,,CLR,0.00,610.00,VWS V14.01,2013-03-02 20:04:00,
2013-03-02 14:09:00,27.5,14.7,30.23,West,279,5.0,9.0,58,0.00,,CLR,0.00,603.00,VWS V14.01,2013-03-02 20:09:00,
2013-03-02 14:14:00,27.9,15.4,30.23,West,265,5.0,9.0,59,0.00,,CLR,0.00,592.00,VWS V14.01,2013-03-02 20:14:00,
2013-03-02 14:19:00,28.4,14.7,30.23,NNW,338,2.0,9.0,56,0.00,,CLR,0.00,584.00,VWS V14.01,2013-03-02 20:19:00,
2013-03-02 14:24:00,28.5,14.8,30.23,WNW,286,4.0,9.0,56,0.00,,CLR,0.00,575.00,VWS V14.01,2013-03-02 20:24:00,
2013-03-02 14:29:00,28.2,14.5,30.23,NW,304,3.0,5.0,56,0.00,,CLR,0.00,568.00,VWS V14.01,2013-03-02 20:29:00,
2013-03-02 14:34:00,28.4,14.7,30.23,WNW,296,7.0,8.0,56,0.00,,CLR,0.00,555.00,VWS V14.01,2013-03-02 20:34:00,
2013-03-02 14:39:00,28.3,14.2,30.23,West,271,6.0,8.0,55,0.00,,CLR,0.00,545.00,VWS V14.01,2013-03-02 20:39:00,
2013-03-02 14:44:00,28.1,14.4,30.23,West,275,6.0,8.0,56,0.00,,CLR,0.00,534.00,VWS V14.01,2013-03-02 20:44:00,
2013-03-02 14:49:00,28.0,14.3,30.23,WNW,283,4.0,10.0,56,0.00,,CLR,0.00,524.00,VWS V14.01,2013-03-02 20:49:00,
2013-03-02 14:54:00,27.9,14.6,30.22,West,273,6.0,11.0,57,0.00,,CLR,0.00,510.00,VWS V14.01,2013-03-02 20:54:00,
2013-03-02 14:59:00,27.8,14.6,30.22,West,281,5.0,5.0,57,0.00,,CLR,0.00,497.00,VWS V14.01,2013-03-02 20:59:00,
2013-03-02 15:04:00,28.0,15.1,30.22,NW,306,6.0,8.0,58,0.00,,CLR,0.00,485.00,VWS V14.01,2013-03-02 21:04:00,
2013-03-02 15:09:00,28.3,15.0,30.23,West,265,6.0,10.0,57,0.00,,CLR,0.00,473.00,VWS V14.01,2013-03-02 21:09:00,
2013-03-02 15:14:00,28.3,15.0,30.23,WNW,286,7.0,10.0,57,0.00,,CLR,0.00,461.00,VWS V14.01,2013-03-02 21:14:00,
2013-03-02 15:19:00,28.3,14.2,30.23,WNW,290,10.0,11.0,55,0.00,,CLR,0.00,448.00,VWS V14.01,2013-03-02 21:19:00,
2013-03-02 15:24:00,28.1,14.4,30.23,West,281,6.0,11.0,56,0.00,,CLR,0.00,434.00,VWS V14.01,2013-03-02 21:24:00,
2013-03-02 15:29:00,28.1,14.4,30.23,WNW,295,6.0,8.0,56,0.00,,CLR,0.00,420.00,VWS V14.01,2013-03-02 21:29:00,
2013-03-02 15:34:00,27.9,13.8,30.23,West,277,5.0,13.0,55,0.00,,CLR,0.00,406.00,VWS V14.01,2013-03-02 21:34:00,
2013-03-02 15:39:00,28.1,14.0,30.23,WNW,292,6.0,13.0,55,0.00,,CLR,0.00,392.00,VWS V14.01,2013-03-02 21:39:00,
2013-03-02 15:44:00,28.2,14.1,30.23,WNW,297,5.0,13.0,55,0.00,,CLR,0.00,378.00,VWS V14.01,2013-03-02 21:44:00,
2013-03-02 15:49:00,28.1,14.0,30.23,West,271,10.0,13.0,55,0.00,,CLR,0.00,366.00,VWS V14.01,2013-03-02 21:49:00,
2013-03-02 15:54:00,28.1,14.0,30.23,West,278,8.0,14.0,55,0.00,,CLR,0.00,350.00,VWS V14.01,2013-03-02 21:54:00,
2013-03-02 15:59:00,28.1,14.0,30.23,NW,314,5.0,10.0,55,0.00,,CLR,0.00,332.00,VWS V14.01,2013-03-02 21:59:00,
2013-03-02 16:04:00,28.1,14.0,30.23,West,269,9.0,11.0,55,0.00,,CLR,0.00,315.00,VWS V14.01,2013-03-02 22:04:00,
2013-03-02 16:09:00,27.9,13.8,30.23,WNW,290,7.0,11.0,55,0.00,,CLR,0.00,255.00,VWS V14.01,2013-03-02 22:09:00,
2013-03-02 16:14:00,27.9,13.8,30.22,West,275,6.0,11.0,55,0.00,,CLR,0.00,279.00,VWS V14.01,2013-03-02 22:14:00,
2013-03-02 16:19:00,28.0,13.9,30.23,West,271,7.0,11.0,55,0.00,,CLR,0.00,265.00,VWS V14.01,2013-03-02 22:19:00,
2013-03-02 16:24:00,27.8,13.8,30.22,WNW,296,8.0,11.0,55,0.00,,CLR,0.00,165.00,VWS V14.01,2013-03-02 22:24:00,
2013-03-02 16:29:00,27.8,13.8,30.23,West,265,10.0,10.0,55,0.00,,CLR,0.00,248.00,VWS V14.01,2013-03-02 22:29:00,
2013-03-02 16:34:00,27.8,13.8,30.23,NW,304,10.0,12.0,55,0.00,,CLR,0.00,236.00,VWS V14.01,2013-03-02 22:34:00,
2013-03-02 16:39:00,27.8,13.3,30.23,WNW,286,8.0,12.0,54,0.00,,CLR,0.00,220.00,VWS V14.01,2013-03-02 22:39:00,
2013-03-02 16:44:00,27.9,13.8,30.23,West,261,7.0,12.0,55,0.00,,CLR,0.00,171.00,VWS V14.01,2013-03-02 22:44:00,
2013-03-02 16:49:00,27.8,13.3,30.23,NW,304,6.0,12.0,54,0.00,,CLR,0.00,134.00,VWS V14.01,2013-03-02 22:49:00,
2013-03-02 16:54:00,27.3,13.3,30.23,West,280,6.0,12.0,55,0.00,,CLR,0.00,95.00,VWS V14.01,2013-03-02 22:54:00,
2013-03-02 16:59:00,27.1,13.5,30.23,WNW,295,9.0,9.0,56,0.00,,CLR,0.00,111.00,VWS V14.01,2013-03-02 22:59:00,
2013-03-02 17:04:00,27.2,13.6,30.23,West,273,3.0,9.0,56,0.00,,CLR,0.00,142.00,VWS V14.01,2013-03-02 23:04:00,
2013-03-02 17:09:00,27.2,13.2,30.23,WNW,289,4.0,9.0,55,0.00,,CLR,0.00,114.00,VWS V14.01,2013-03-02 23:09:00,
2013-03-02 17:14:00,27.1,13.1,30.22,West,279,4.0,9.0,55,0.00,,CLR,0.00,95.00,VWS V14.01,2013-03-02 23:14:00,
2013-03-02 17:19:00,27.0,13.0,30.22,WNW,288,4.0,9.0,55,0.00,,CLR,0.00,83.00,VWS V14.01,2013-03-02 23:19:00,
2013-03-02 17:24:00,26.7,12.3,30.22,West,273,4.0,9.0,54,0.00,,CLR,0.00,51.00,VWS V14.01,2013-03-02 23:24:00,
2013-03-02 17:29:00,26.5,12.5,30.22,West,279,3.0,4.0,55,0.00,,CLR,0.00,30.00,VWS V14.01,2013-03-02 23:29:00,
2013-03-02 17:34:00,26.2,12.2,30.22,West,273,3.0,7.0,55,0.00,,CLR,0.00,21.00,VWS V14.01,2013-03-02 23:34:00,
2013-03-02 17:39:00,26.0,12.1,30.22,WNW,299,5.0,7.0,55,0.00,,CLR,0.00,18.00,VWS V14.01,2013-03-02 23:39:00,
2013-03-02 17:44:00,25.7,11.8,30.23,WNW,300,3.0,7.0,55,0.00,,CLR,0.00,14.00,VWS V14.01,2013-03-02 23:44:00,
2013-03-02 17:49:00,25.4,11.5,30.23,WNW,289,4.0,7.0,55,0.00,,CLR,0.00,9.00,VWS V14.01,2013-03-02 23:49:00,
2013-03-02 17:54:00,25.1,11.2,30.23,WNW,283,3.0,7.0,55,0.00,,CLR,0.00,0.00,VWS V14.01,2013-03-02 23:54:00,
2013-03-02 17:59:00,24.9,11.0,30.23,WNW,298,2.0,2.0,55,0.00,,CLR,0.00,0.00,VWS V14.01,2013-03-02 23:59:00,
2013-03-02 18:04:00,24.7,11.2,30.23,West,278,5.0,5.0,56,0.00,,CLR,0.00,0.00,VWS V14.01,2013-03-03 00:04:00,
2013-03-02 18:09:00,24.6,11.2,30.23,WNW,295,3.0,5.0,56,0.00,,CLR,0.00,0.00,VWS V14.01,2013-03-03 00:09:00,
2013-03-02 18:14:00,24.5,11.1,30.23,WNW,295,2.0,5.0,56,0.00,,CLR,0.00,0.00,VWS V14.01,2013-03-03 00:14:00,
2013-03-02 18:19:00,24.3,10.9,30.23,WNW,282,2.0,5.0,56,0.00,,CLR,0.00,0.00,VWS V14.01,2013-03-03 00:19:00,
2013-03-02 18:24:00,24.2,11.2,30.23,WNW,286,1.0,5.0,57,0.00,,CLR,0.00,0.00,VWS V14.01,2013-03-03 00:24:00,
2013-03-02 18:29:00,24.0,11.0,30.23,WNW,286,1.0,1.0,57,0.00,,CLR,0.00,0.00,VWS V14.01,2013-03-03 00:29:00,
2013-03-02 18:34:00,23.9,10.9,30.23,WNW,286,2.0,3.0,57,0.00,,CLR,0.00,0.00,VWS V14.01,2013-03-03 00:34:00,
2013-03-02 18:39:00,23.8,11.2,30.23,WNW,286,0.0,3.0,58,0.00,,CLR,0.00,0.00,VWS V14.01,2013-03-03 00:39:00,
2013-03-02 18:45:00,23.6,11.0,30.23,WNW,286,0.0,3.0,58,0.00,,CLR,0.00,0.00,VWS V14.01,2013-03-03 00:45:00,
2013-03-02 18:50:00,23.5,10.9,30.23,West,273,0.0,3.0,58,0.00,,CLR,0.00,0.00,VWS V14.01,2013-03-03 00:50:00,
2013-03-02 18:55:00,23.4,11.2,30.23,WNW,298,0.0,3.0,59,0.00,,CLR,0.00,0.00,VWS V14.01,2013-03-03 00:55:00,
2013-03-02 19:00:00,23.3,11.1,30.23,WNW,298,0.0,2.0,59,0.00,,CLR,0.00,0.00,VWS V14.01,2013-03-03 01:00:00,
2013-03-02 19:05:00,23.2,11.0,30.22,WNW,298,0.0,2.0,59,0.00,,CLR,0.00,0.00,VWS V14.01,2013-03-03 01:05:00,
2013-03-02 19:10:00,23.2,11.0,30.22,WNW,298,0.0,2.0,59,0.00,,CLR,0.00,0.00,VWS V14.01,2013-03-03 01:10:00,
2013-03-02 19:15:00,23.1,10.9,30.22,WNW,298,1.0,2.0,59,0.00,,CLR,0.00,0.00,VWS V14.01,2013-03-03 01:15:00,
2013-03-02 19:20:00,23.0,10.8,30.22,WNW,298,1.0,2.0,59,0.00,,CLR,0.00,0.00,VWS V14.01,2013-03-03 01:20:00,
2013-03-02 19:25:00,23.0,10.8,30.22,WNW,298,0.0,2.0,59,0.00,,CLR,0.00,0.00,VWS V14.01,2013-03-03 01:25:00,
2013-03-02 19:30:00,23.0,10.8,30.22,WNW,298,0.0,1.0,59,0.00,,CLR,0.00,0.00,VWS V14.01,2013-03-03 01:30:00,
2013-03-02 19:35:00,22.9,10.7,30.22,WNW,298,0.0,1.0,59,0.00,,CLR,0.00,0.00,VWS V14.01,2013-03-03 01:35:00,
2013-03-02 19:40:00,22.9,11.1,30.22,WNW,298,1.0,2.0,60,0.00,,CLR,0.00,0.00,VWS V14.01,2013-03-03 01:40:00,
2013-03-02 19:45:00,22.9,11.1,30.21,WNW,298,0.0,2.0,60,0.00,,CLR,0.00,0.00,VWS V14.01,2013-03-03 01:45:00,
2013-03-02 19:50:00,22.9,11.5,30.21,WNW,298,0.0,2.0,61,0.00,,CLR,0.00,0.00,VWS V14.01,2013-03-03 01:50:00,
2013-03-02 19:55:00,22.7,10.9,30.22,WNW,298,1.0,2.0,60,0.00,,CLR,0.00,0.00,VWS V14.01,2013-03-03 01:55:00,
2013-03-02 20:00:00,22.7,10.9,30.22,WNW,298,0.0,1.0,60,0.00,,BKN110,0.00,0.00,VWS V14.01,2013-03-03 02:00:00,
2013-03-02 20:05:00,22.7,10.9,30.22,WNW,298,4.0,4.0,60,0.00,,BKN110,0.00,0.00,VWS V14.01,2013-03-03 02:05:00,
2013-03-02 20:10:00,22.9,10.7,30.22,NW,311,1.0,4.0,59,0.00,,BKN110,0.00,0.00,VWS V14.01,2013-03-03 02:10:00,
2013-03-02 20:15:00,22.9,10.7,30.22,NW,311,1.0,4.0,59,0.00,,BKN110,0.00,0.00,VWS V14.01,2013-03-03 02:15:00,
2013-03-02 20:20:00,22.8,10.6,30.22,NW,311,2.0,4.0,59,0.00,,BKN110,0.00,0.00,VWS V14.01,2013-03-03 02:20:00,
2013-03-02 20:25:00,22.7,10.5,30.22,NW,311,0.0,4.0,59,0.00,,BKN110,0.00,0.00,VWS V14.01,2013-03-03 02:25:00,
2013-03-02 20:30:00,22.6,10.4,30.22,NW,311,0.0,1.0,59,0.00,,BKN110,0.00,0.00,VWS V14.01,2013-03-03 02:30:00,
2013-03-02 20:35:00,22.5,10.7,30.22,NW,311,2.0,3.0,60,0.00,,BKN110,0.00,0.00,VWS V14.01,2013-03-03 02:35:00,
2013-03-02 20:40:00,22.6,10.4,30.22,NW,311,0.0,3.0,59,0.00,,BKN110,0.00,0.00,VWS V14.01,2013-03-03 02:40:00,
2013-03-02 20:45:00,22.5,10.4,30.22,NW,311,0.0,3.0,59,0.00,,BKN110,0.00,0.00,VWS V14.01,2013-03-03 02:45:00,
2013-03-02 20:50:00,22.5,10.4,30.22,NW,311,0.0,3.0,59,0.00,,BKN110,0.00,0.00,VWS V14.01,2013-03-03 02:50:00,
2013-03-02 20:55:00,22.5,10.4,30.22,NW,311,0.0,3.0,59,0.00,,BKN110,0.00,0.00,VWS V14.01,2013-03-03 02:55:00,
2013-03-02 21:00:00,22.6,10.4,30.21,NW,311,0.0,0.0,59,0.00,,OVC090,0.00,0.00,VWS V14.01,2013-03-03 03:00:00,
2013-03-02 21:05:00,22.7,10.5,30.22,NW,311,0.0,0.0,59,0.00,,OVC090,0.00,0.00,VWS V14.01,2013-03-03 03:05:00,
2013-03-02 21:10:00,22.7,10.5,30.22,NW,311,0.0,0.0,59,0.00,,OVC090,0.00,0.00,VWS V14.01,2013-03-03 03:10:00,
2013-03-02 21:15:00,22.7,10.2,30.21,NW,311,0.0,0.0,58,0.00,,OVC090,0.00,0.00,VWS V14.01,2013-03-03 03:15:00,
2013-03-02 21:20:00,22.8,10.2,30.21,NW,311,0.0,1.0,58,0.00,,OVC090,0.00,0.00,VWS V14.01,2013-03-03 03:20:00,
2013-03-02 21:25:00,22.9,10.3,30.21,NW,311,0.0,1.0,58,0.00,,OVC090,0.00,0.00,VWS V14.01,2013-03-03 03:25:00,
2013-03-02 21:30:00,23.0,10.1,30.21,NW,311,0.0,1.0,57,0.00,,OVC090,0.00,0.00,VWS V14.01,2013-03-03 03:30:00,
2013-03-02 21:35:00,22.9,10.3,30.21,NW,311,0.0,1.0,58,0.00,,OVC090,0.00,0.00,VWS V14.01,2013-03-03 03:35:00,
2013-03-02 21:40:00,22.6,10.4,30.21,NW,311,0.0,1.0,59,0.00,,OVC090,0.00,0.00,VWS V14.01,2013-03-03 03:40:00,
2013-03-02 21:45:00,22.2,10.4,30.20,NW,311,0.0,1.0,60,0.00,,OVC090,0.00,0.00,VWS V14.01,2013-03-03 03:45:00,
2013-03-02 21:50:00,21.8,10.4,30.20,NW,311,0.0,1.0,61,0.00,,OVC090,0.00,0.00,VWS V14.01,2013-03-03 03:50:00,
2013-03-02 21:55:00,21.3,10.0,30.21,NW,311,0.0,1.0,61,0.00,,OVC090,0.00,0.00,VWS V14.01,2013-03-03 03:55:00,
2013-03-02 22:00:00,20.7,9.8,30.20,NW,311,0.0,0.0,62,0.00,,BKN110,0.00,0.00,VWS V14.01,2013-03-03 04:00:00,
2013-03-02 22:05:00,20.3,9.4,30.20,NW,311,0.0,0.0,62,0.00,,BKN110,0.00,0.00,VWS V14.01,2013-03-03 04:05:00,
2013-03-02 22:10:00,20.2,9.6,30.21,NW,311,0.0,0.0,63,0.00,,BKN110,0.00,0.00,VWS V14.01,2013-03-03 04:10:00,
2013-03-02 22:15:00,20.2,9.6,30.21,NW,311,0.0,0.0,63,0.00,,BKN110,0.00,0.00,VWS V14.01,2013-03-03 04:15:00,
2013-03-02 22:20:00,19.9,9.4,30.21,NW,311,0.0,0.0,63,0.00,,BKN110,0.00,0.00,VWS V14.01,2013-03-03 04:20:00,
2013-03-02 22:25:00,19.5,9.3,30.21,NW,311,0.0,0.0,64,0.00,,BKN110,0.00,0.00,VWS V14.01,2013-03-03 04:25:00,
2013-03-02 22:30:00,19.2,9.0,30.21,NW,311,0.0,0.0,64,0.00,,BKN110,0.00,0.00,VWS V14.01,2013-03-03 04:30:00,
2013-03-02 22:35:00,18.8,9.0,30.20,NW,311,0.0,0.0,65,0.00,,BKN110,0.00,0.00,VWS V14.01,2013-03-03 04:35:00,
2013-03-02 22:40:00,18.3,8.5,30.21,NW,311,0.0,0.0,65,0.00,,BKN110,0.00,0.00,VWS V14.01,2013-03-03 04:40:00,
2013-03-02 22:45:00,17.9,8.5,30.21,NW,311,0.0,1.0,66,0.00,,BKN110,0.00,0.00,VWS V14.01,2013-03-03 04:45:00,
2013-03-02 22:50:00,17.8,8.7,30.20,NW,311,0.0,1.0,67,0.00,,BKN110,0.00,0.00,VWS V14.01,2013-03-03 04:50:00,
2013-03-02 22:55:00,17.7,8.9,30.20,NW,311,0.0,1.0,68,0.00,,BKN110,0.00,0.00,VWS V14.01,2013-03-03 04:55:00,
2013-03-02 23:00:00,17.6,8.9,30.20,NW,311,0.0,0.0,68,0.00,,CLR,0.00,0.00,VWS V14.01,2013-03-03 05:00:00,
2013-03-02 23:01:00,17.6,8.9,30.20,NW,311,0.0,0.0,68,0.00,,CLR,0.00,0.00,VWS V14.01,2013-03-03 05:01:00,
2013-03-02 23:06:00,17.3,8.6,30.20,NW,311,0.0,0.0,68,0.00,,CLR,0.00,0.00,VWS V14.01,2013-03-03 05:06:00,
2013-03-02 23:11:00,17.1,8.4,30.20,NW,311,0.0,0.0,68,0.00,,CLR,0.00,0.00,VWS V14.01,2013-03-03 05:11:00,
2013-03-02 23:16:00,16.9,8.2,30.20,NW,311,0.0,0.0,68,0.00,,CLR,0.00,0.00,VWS V14.01,2013-03-03 05:16:00,
2013-03-02 23:21:00,16.9,8.5,30.20,NW,311,0.0,0.0,69,0.00,,CLR,0.00,0.00,VWS V14.01,2013-03-03 05:21:00,
2013-03-02 23:26:00,16.9,8.5,30.20,NW,311,0.0,0.0,69,0.00,,CLR,0.00,0.00,VWS V14.01,2013-03-03 05:26:00,
2013-03-02 23:31:00,16.7,8.3,30.20,NW,311,0.0,0.0,69,0.00,,CLR,0.00,0.00,VWS V14.01,2013-03-03 05:31:00,
2013-03-02 23:36:00,16.5,8.4,30.20,NW,311,0.0,0.0,70,0.00,,CLR,0.00,0.00,VWS V14.01,2013-03-03 05:36:00,
2013-03-02 23:41:00,16.4,8.3,30.19,NW,311,0.0,0.0,70,0.00,,CLR,0.00,0.00,VWS V14.01,2013-03-03 05:41:00,
2013-03-02 23:46:00,16.1,8.1,30.19,NW,311,0.0,0.0,70,0.00,,CLR,0.00,0.00,VWS V14.01,2013-03-03 05:46:00,
2013-03-02 23:51:00,15.8,8.1,30.19,NW,311,0.0,0.0,71,0.00,,CLR,0.00,0.00,VWS V14.01,2013-03-03 05:51:00,
2013-03-02 23:56:00,15.5,7.8,30.19,NW,311,0.0,0.0,71,0.00,,CLR,0.00,0.00,VWS V14.01,2013-03-03 05:56:00,